sensor_id;sensor_type;location;lat;lon;timestamp;P1;durP1;ratioP1;P2;durP2;ratioP2
22024;SDS011;11176;51.448;6.650;2023-02-01T00:00:15;23.27;;;7.50;;
22024;SDS011;11176;51.448;6.650;2023-02-01T00:02:42;26.40;;;7.13;;
22024;SDS011;11176;51.448;6.650;2023-02-01T00:05:09;20.33;;;6.47;;
22024;SDS011;11176;51.448;6.650;2023-02-01T00:07:36;31.02;;;9.65;;
22024;SDS011;11176;51.448;6.650;2023-02-01T00:10:04;23.38;;;7.70;;
22024;SDS011;11176;51.448;6.650;2023-02-01T00:12:31;24.63;;;8.20;;
22024;SDS011;11176;51.448;6.650;2023-02-01T00:14:58;25.08;;;8.18;;
22024;SDS011;11176;51.448;6.650;2023-02-01T00:17:25;32.53;;;12.13;;
22024;SDS011;11176;51.448;6.650;2023-02-01T00:19:51;29.17;;;8.77;;
22024;SDS011;11176;51.448;6.650;2023-02-01T00:22:18;24.48;;;8.63;;
22024;SDS011;11176;51.448;6.650;2023-02-01T00:24:44;23.00;;;7.00;;
22024;SDS011;11176;51.448;6.650;2023-02-01T00:27:11;25.23;;;9.07;;
22024;SDS011;11176;51.448;6.650;2023-02-01T00:29:43;37.42;;;11.00;;
22024;SDS011;11176;51.448;6.650;2023-02-01T00:32:11;27.02;;;9.27;;
22024;SDS011;11176;51.448;6.650;2023-02-01T00:34:38;38.38;;;12.27;;
22024;SDS011;11176;51.448;6.650;2023-02-01T00:37:04;29.83;;;10.07;;
22024;SDS011;11176;51.448;6.650;2023-02-01T00:39:31;23.27;;;6.82;;
22024;SDS011;11176;51.448;6.650;2023-02-01T00:41:59;26.55;;;8.48;;
22024;SDS011;11176;51.448;6.650;2023-02-01T00:44:27;20.00;;;6.20;;
22024;SDS011;11176;51.448;6.650;2023-02-01T00:46:53;16.30;;;6.35;;
22024;SDS011;11176;51.448;6.650;2023-02-01T00:49:20;25.85;;;9.88;;
22024;SDS011;11176;51.448;6.650;2023-02-01T00:51:46;22.75;;;8.55;;
22024;SDS011;11176;51.448;6.650;2023-02-01T00:54:13;24.17;;;8.23;;
22024;SDS011;11176;51.448;6.650;2023-02-01T00:56:40;23.50;;;7.03;;
22024;SDS011;11176;51.448;6.650;2023-02-01T00:59:07;21.42;;;7.80;;
22024;SDS011;11176;51.448;6.650;2023-02-01T01:01:36;19.98;;;8.02;;
22024;SDS011;11176;51.448;6.650;2023-02-01T01:04:03;23.05;;;8.13;;
22024;SDS011;11176;51.448;6.650;2023-02-01T01:06:30;16.75;;;7.07;;
22024;SDS011;11176;51.448;6.650;2023-02-01T01:09:00;18.50;;;7.35;;
22024;SDS011;11176;51.448;6.650;2023-02-01T01:11:29;19.80;;;7.22;;
22024;SDS011;11176;51.448;6.650;2023-02-01T01:13:57;25.60;;;7.82;;
22024;SDS011;11176;51.448;6.650;2023-02-01T01:16:26;20.77;;;6.97;;
22024;SDS011;11176;51.448;6.650;2023-02-01T01:18:54;23.92;;;7.30;;
22024;SDS011;11176;51.448;6.650;2023-02-01T01:21:23;19.13;;;7.38;;
22024;SDS011;11176;51.448;6.650;2023-02-01T01:23:50;22.67;;;7.70;;
22024;SDS011;11176;51.448;6.650;2023-02-01T01:26:18;20.85;;;7.30;;
22024;SDS011;11176;51.448;6.650;2023-02-01T01:28:46;20.15;;;6.78;;
22024;SDS011;11176;51.448;6.650;2023-02-01T01:31:14;20.75;;;7.13;;
22024;SDS011;11176;51.448;6.650;2023-02-01T01:33:42;17.20;;;6.75;;
22024;SDS011;11176;51.448;6.650;2023-02-01T01:36:12;17.17;;;6.22;;
22024;SDS011;11176;51.448;6.650;2023-02-01T01:38:39;17.08;;;5.88;;
22024;SDS011;11176;51.448;6.650;2023-02-01T01:41:07;20.33;;;6.45;;
22024;SDS011;11176;51.448;6.650;2023-02-01T01:46:33;18.20;;;6.03;;
22024;SDS011;11176;51.448;6.650;2023-02-01T01:49:12;15.13;;;5.68;;
22024;SDS011;11176;51.448;6.650;2023-02-01T01:51:49;17.33;;;5.10;;
22024;SDS011;11176;51.448;6.650;2023-02-01T01:54:23;15.98;;;5.07;;
22024;SDS011;11176;51.448;6.650;2023-02-01T01:56:56;13.48;;;4.65;;
22024;SDS011;11176;51.448;6.650;2023-02-01T01:59:26;17.45;;;4.78;;
22024;SDS011;11176;51.448;6.650;2023-02-01T02:01:54;18.98;;;4.85;;
22024;SDS011;11176;51.448;6.650;2023-02-01T02:04:21;16.25;;;4.47;;
22024;SDS011;11176;51.448;6.650;2023-02-01T02:06:54;17.23;;;5.72;;
22024;SDS011;11176;51.448;6.650;2023-02-01T02:09:25;20.77;;;5.50;;
22024;SDS011;11176;51.448;6.650;2023-02-01T02:11:52;13.55;;;4.63;;
22024;SDS011;11176;51.448;6.650;2023-02-01T02:14:19;16.48;;;5.05;;
22024;SDS011;11176;51.448;6.650;2023-02-01T02:22:33;14.75;;;4.10;;
22024;SDS011;11176;51.448;6.650;2023-02-01T02:33:45;22.17;;;5.40;;
22024;SDS011;11176;51.448;6.650;2023-02-01T02:42:00;21.17;;;4.63;;
22024;SDS011;11176;51.448;6.650;2023-02-01T02:48:15;21.90;;;5.25;;
22024;SDS011;11176;51.448;6.650;2023-02-01T02:50:53;17.60;;;5.20;;
22024;SDS011;11176;51.448;6.650;2023-02-01T02:56:51;18.15;;;4.45;;
22024;SDS011;11176;51.448;6.650;2023-02-01T02:59:40;13.60;;;4.35;;
22024;SDS011;11176;51.448;6.650;2023-02-01T03:02:31;19.58;;;4.35;;
22024;SDS011;11176;51.448;6.650;2023-02-01T03:05:18;16.98;;;4.32;;
22024;SDS011;11176;51.448;6.650;2023-02-01T03:11:06;20.48;;;4.53;;
22024;SDS011;11176;51.448;6.650;2023-02-01T03:13:41;18.60;;;4.63;;
22024;SDS011;11176;51.448;6.650;2023-02-01T03:16:22;17.33;;;4.60;;
22024;SDS011;11176;51.448;6.650;2023-02-01T03:18:55;17.38;;;4.80;;
22024;SDS011;11176;51.448;6.650;2023-02-01T03:24:06;16.83;;;4.45;;
22024;SDS011;11176;51.448;6.650;2023-02-01T03:26:48;19.13;;;4.65;;
22024;SDS011;11176;51.448;6.650;2023-02-01T03:29:27;20.77;;;5.00;;
22024;SDS011;11176;51.448;6.650;2023-02-01T03:31:59;17.13;;;5.18;;
22024;SDS011;11176;51.448;6.650;2023-02-01T03:34:26;20.80;;;4.68;;
22024;SDS011;11176;51.448;6.650;2023-02-01T03:36:56;18.02;;;4.63;;
22024;SDS011;11176;51.448;6.650;2023-02-01T03:39:34;24.23;;;5.25;;
22024;SDS011;11176;51.448;6.650;2023-02-01T03:42:08;21.40;;;5.20;;
22024;SDS011;11176;51.448;6.650;2023-02-01T03:44:42;23.83;;;5.18;;
22024;SDS011;11176;51.448;6.650;2023-02-01T03:47:23;24.23;;;4.82;;
22024;SDS011;11176;51.448;6.650;2023-02-01T03:49:58;26.88;;;5.45;;
22024;SDS011;11176;51.448;6.650;2023-02-01T03:52:40;20.23;;;5.00;;
22024;SDS011;11176;51.448;6.650;2023-02-01T03:55:13;15.90;;;4.75;;
22024;SDS011;11176;51.448;6.650;2023-02-01T03:57:46;21.33;;;5.82;;
22024;SDS011;11176;51.448;6.650;2023-02-01T04:00:22;19.15;;;5.30;;
22024;SDS011;11176;51.448;6.650;2023-02-01T04:02:51;16.33;;;5.13;;
22024;SDS011;11176;51.448;6.650;2023-02-01T04:05:19;19.83;;;4.95;;
22024;SDS011;11176;51.448;6.650;2023-02-01T04:08:00;15.60;;;4.60;;
22024;SDS011;11176;51.448;6.650;2023-02-01T04:10:27;16.77;;;5.07;;
22024;SDS011;11176;51.448;6.650;2023-02-01T04:12:54;17.50;;;5.00;;
22024;SDS011;11176;51.448;6.650;2023-02-01T04:15:20;20.45;;;5.32;;
22024;SDS011;11176;51.448;6.650;2023-02-01T04:17:47;19.48;;;4.82;;
22024;SDS011;11176;51.448;6.650;2023-02-01T04:20:13;18.13;;;4.90;;
22024;SDS011;11176;51.448;6.650;2023-02-01T04:22:40;22.58;;;5.65;;
22024;SDS011;11176;51.448;6.650;2023-02-01T04:25:07;23.15;;;5.35;;
22024;SDS011;11176;51.448;6.650;2023-02-01T04:27:34;25.92;;;5.63;;
22024;SDS011;11176;51.448;6.650;2023-02-01T04:30:02;18.77;;;4.75;;
22024;SDS011;11176;51.448;6.650;2023-02-01T04:32:30;21.45;;;5.07;;
22024;SDS011;11176;51.448;6.650;2023-02-01T04:34:56;21.70;;;5.03;;
22024;SDS011;11176;51.448;6.650;2023-02-01T04:37:23;22.15;;;5.25;;
22024;SDS011;11176;51.448;6.650;2023-02-01T04:39:49;22.08;;;5.25;;
22024;SDS011;11176;51.448;6.650;2023-02-01T04:42:15;22.15;;;5.25;;
22024;SDS011;11176;51.448;6.650;2023-02-01T04:44:42;23.45;;;5.50;;
22024;SDS011;11176;51.448;6.650;2023-02-01T04:47:09;30.75;;;5.97;;
22024;SDS011;11176;51.448;6.650;2023-02-01T04:49:35;22.38;;;5.43;;
22024;SDS011;11176;51.448;6.650;2023-02-01T04:52:02;35.40;;;6.43;;
22024;SDS011;11176;51.448;6.650;2023-02-01T04:54:28;19.75;;;5.75;;
22024;SDS011;11176;51.448;6.650;2023-02-01T04:56:55;23.73;;;5.43;;
22024;SDS011;11176;51.448;6.650;2023-02-01T04:59:21;18.25;;;5.07;;
22024;SDS011;11176;51.448;6.650;2023-02-01T05:01:48;21.92;;;5.15;;
22024;SDS011;11176;51.448;6.650;2023-02-01T05:04:14;25.95;;;5.85;;
22024;SDS011;11176;51.448;6.650;2023-02-01T05:06:41;22.95;;;5.53;;
22024;SDS011;11176;51.448;6.650;2023-02-01T05:09:07;24.23;;;5.47;;
22024;SDS011;11176;51.448;6.650;2023-02-01T05:11:34;19.50;;;5.15;;
22024;SDS011;11176;51.448;6.650;2023-02-01T05:14:19;23.30;;;4.82;;
22024;SDS011;11176;51.448;6.650;2023-02-01T05:16:45;26.98;;;5.22;;
22024;SDS011;11176;51.448;6.650;2023-02-01T05:19:12;22.70;;;4.85;;
22024;SDS011;11176;51.448;6.650;2023-02-01T05:21:38;24.08;;;4.57;;
22024;SDS011;11176;51.448;6.650;2023-02-01T05:24:05;23.10;;;5.65;;
22024;SDS011;11176;51.448;6.650;2023-02-01T05:26:46;24.65;;;4.82;;
22024;SDS011;11176;51.448;6.650;2023-02-01T05:29:14;21.17;;;5.45;;
22024;SDS011;11176;51.448;6.650;2023-02-01T05:31:41;20.77;;;4.72;;
22024;SDS011;11176;51.448;6.650;2023-02-01T05:34:08;26.15;;;5.63;;
22024;SDS011;11176;51.448;6.650;2023-02-01T05:36:34;19.35;;;5.45;;
22024;SDS011;11176;51.448;6.650;2023-02-01T05:39:00;28.38;;;4.93;;
22024;SDS011;11176;51.448;6.650;2023-02-01T05:41:27;21.88;;;6.25;;
22024;SDS011;11176;51.448;6.650;2023-02-01T05:43:53;25.23;;;5.10;;
22024;SDS011;11176;51.448;6.650;2023-02-01T05:46:20;25.30;;;5.07;;
22024;SDS011;11176;51.448;6.650;2023-02-01T05:48:46;18.85;;;4.95;;
22024;SDS011;11176;51.448;6.650;2023-02-01T05:51:13;20.27;;;4.70;;
22024;SDS011;11176;51.448;6.650;2023-02-01T05:53:39;21.95;;;5.05;;
22024;SDS011;11176;51.448;6.650;2023-02-01T05:56:06;28.30;;;5.88;;
22024;SDS011;11176;51.448;6.650;2023-02-01T05:58:33;22.17;;;5.05;;
22024;SDS011;11176;51.448;6.650;2023-02-01T06:01:00;26.65;;;5.63;;
22024;SDS011;11176;51.448;6.650;2023-02-01T06:03:27;25.02;;;4.93;;
22024;SDS011;11176;51.448;6.650;2023-02-01T06:05:54;27.33;;;5.15;;
22024;SDS011;11176;51.448;6.650;2023-02-01T06:08:20;16.35;;;4.95;;
22024;SDS011;11176;51.448;6.650;2023-02-01T06:10:47;24.00;;;5.53;;
22024;SDS011;11176;51.448;6.650;2023-02-01T06:13:13;24.35;;;4.90;;
22024;SDS011;11176;51.448;6.650;2023-02-01T06:15:40;31.23;;;6.20;;
22024;SDS011;11176;51.448;6.650;2023-02-01T06:18:08;22.42;;;6.00;;
22024;SDS011;11176;51.448;6.650;2023-02-01T06:20:35;21.98;;;5.05;;
22024;SDS011;11176;51.448;6.650;2023-02-01T06:23:01;19.65;;;5.35;;
22024;SDS011;11176;51.448;6.650;2023-02-01T06:25:28;26.15;;;5.72;;
22024;SDS011;11176;51.448;6.650;2023-02-01T06:27:54;20.98;;;5.10;;
22024;SDS011;11176;51.448;6.650;2023-02-01T06:30:21;21.50;;;4.90;;
22024;SDS011;11176;51.448;6.650;2023-02-01T06:32:50;28.27;;;5.60;;
22024;SDS011;11176;51.448;6.650;2023-02-01T06:35:19;24.90;;;5.57;;
22024;SDS011;11176;51.448;6.650;2023-02-01T06:37:46;20.55;;;5.22;;
22024;SDS011;11176;51.448;6.650;2023-02-01T06:40:13;18.15;;;4.80;;
22024;SDS011;11176;51.448;6.650;2023-02-01T06:42:39;19.58;;;5.15;;
22024;SDS011;11176;51.448;6.650;2023-02-01T06:45:06;29.00;;;5.50;;
22024;SDS011;11176;51.448;6.650;2023-02-01T06:47:33;20.33;;;5.00;;
22024;SDS011;11176;51.448;6.650;2023-02-01T06:49:59;24.52;;;5.45;;
22024;SDS011;11176;51.448;6.650;2023-02-01T06:52:26;20.67;;;4.82;;
22024;SDS011;11176;51.448;6.650;2023-02-01T06:54:53;25.48;;;5.60;;
22024;SDS011;11176;51.448;6.650;2023-02-01T06:57:19;23.90;;;5.50;;
22024;SDS011;11176;51.448;6.650;2023-02-01T06:59:45;27.42;;;5.25;;
22024;SDS011;11176;51.448;6.650;2023-02-01T07:02:12;23.65;;;5.60;;
22024;SDS011;11176;51.448;6.650;2023-02-01T07:04:38;19.85;;;5.03;;
22024;SDS011;11176;51.448;6.650;2023-02-01T07:07:05;24.10;;;5.07;;
22024;SDS011;11176;51.448;6.650;2023-02-01T07:09:31;20.17;;;5.68;;
22024;SDS011;11176;51.448;6.650;2023-02-01T07:11:58;21.90;;;4.93;;
22024;SDS011;11176;51.448;6.650;2023-02-01T07:14:24;28.52;;;5.38;;
22024;SDS011;11176;51.448;6.650;2023-02-01T07:16:51;27.17;;;5.68;;
22024;SDS011;11176;51.448;6.650;2023-02-01T07:19:17;30.10;;;6.15;;
22024;SDS011;11176;51.448;6.650;2023-02-01T07:21:43;25.77;;;5.72;;
22024;SDS011;11176;51.448;6.650;2023-02-01T07:24:10;22.77;;;5.38;;
22024;SDS011;11176;51.448;6.650;2023-02-01T07:26:36;23.83;;;5.82;;
22024;SDS011;11176;51.448;6.650;2023-02-01T07:29:03;18.35;;;5.43;;
22024;SDS011;11176;51.448;6.650;2023-02-01T07:31:30;23.10;;;5.75;;
22024;SDS011;11176;51.448;6.650;2023-02-01T07:33:56;21.50;;;5.63;;
22024;SDS011;11176;51.448;6.650;2023-02-01T07:36:24;22.05;;;5.63;;
22024;SDS011;11176;51.448;6.650;2023-02-01T07:38:50;23.95;;;5.38;;
22024;SDS011;11176;51.448;6.650;2023-02-01T07:41:21;28.88;;;6.32;;
22024;SDS011;11176;51.448;6.650;2023-02-01T07:43:48;24.73;;;5.35;;
22024;SDS011;11176;51.448;6.650;2023-02-01T07:46:16;17.90;;;5.00;;
22024;SDS011;11176;51.448;6.650;2023-02-01T07:48:43;27.98;;;6.38;;
22024;SDS011;11176;51.448;6.650;2023-02-01T07:51:10;29.50;;;5.85;;
22024;SDS011;11176;51.448;6.650;2023-02-01T07:53:39;23.92;;;5.82;;
22024;SDS011;11176;51.448;6.650;2023-02-01T07:56:10;26.73;;;5.80;;
22024;SDS011;11176;51.448;6.650;2023-02-01T07:58:39;19.27;;;5.13;;
22024;SDS011;11176;51.448;6.650;2023-02-01T08:01:05;28.40;;;5.60;;
22024;SDS011;11176;51.448;6.650;2023-02-01T08:03:48;25.42;;;6.05;;
22024;SDS011;11176;51.448;6.650;2023-02-01T08:06:16;26.55;;;5.63;;
22024;SDS011;11176;51.448;6.650;2023-02-01T08:08:42;22.58;;;7.82;;
22024;SDS011;11176;51.448;6.650;2023-02-01T08:11:11;30.65;;;7.65;;
22024;SDS011;11176;51.448;6.650;2023-02-01T08:13:37;28.13;;;5.88;;
22024;SDS011;11176;51.448;6.650;2023-02-01T08:16:05;31.67;;;6.28;;
22024;SDS011;11176;51.448;6.650;2023-02-01T08:18:33;22.80;;;5.18;;
22024;SDS011;11176;51.448;6.650;2023-02-01T08:21:05;25.52;;;6.30;;
22024;SDS011;11176;51.448;6.650;2023-02-01T08:23:36;29.13;;;6.22;;
22024;SDS011;11176;51.448;6.650;2023-02-01T08:26:21;29.92;;;5.57;;
22024;SDS011;11176;51.448;6.650;2023-02-01T08:28:54;26.02;;;5.65;;
22024;SDS011;11176;51.448;6.650;2023-02-01T08:31:22;19.60;;;5.57;;
22024;SDS011;11176;51.448;6.650;2023-02-01T08:33:52;22.63;;;5.03;;
22024;SDS011;11176;51.448;6.650;2023-02-01T08:36:23;30.65;;;5.68;;
22024;SDS011;11176;51.448;6.650;2023-02-01T08:38:51;30.33;;;6.35;;
22024;SDS011;11176;51.448;6.650;2023-02-01T08:41:18;29.08;;;6.28;;
22024;SDS011;11176;51.448;6.650;2023-02-01T08:43:47;27.38;;;5.97;;
22024;SDS011;11176;51.448;6.650;2023-02-01T08:46:14;19.83;;;5.47;;
22024;SDS011;11176;51.448;6.650;2023-02-01T08:48:41;21.60;;;6.07;;
22024;SDS011;11176;51.448;6.650;2023-02-01T08:51:09;21.60;;;6.13;;
22024;SDS011;11176;51.448;6.650;2023-02-01T08:53:37;21.98;;;6.03;;
22024;SDS011;11176;51.448;6.650;2023-02-01T08:56:07;24.55;;;5.85;;
22024;SDS011;11176;51.448;6.650;2023-02-01T08:58:36;31.13;;;6.57;;
22024;SDS011;11176;51.448;6.650;2023-02-01T09:01:09;27.50;;;5.97;;
22024;SDS011;11176;51.448;6.650;2023-02-01T09:03:38;22.52;;;5.32;;
22024;SDS011;11176;51.448;6.650;2023-02-01T09:06:06;21.33;;;5.80;;
22024;SDS011;11176;51.448;6.650;2023-02-01T09:08:35;25.60;;;6.18;;
22024;SDS011;11176;51.448;6.650;2023-02-01T09:11:06;20.00;;;5.38;;
22024;SDS011;11176;51.448;6.650;2023-02-01T09:13:34;23.80;;;5.50;;
22024;SDS011;11176;51.448;6.650;2023-02-01T09:16:03;27.40;;;6.57;;
22024;SDS011;11176;51.448;6.650;2023-02-01T09:18:30;32.88;;;6.03;;
22024;SDS011;11176;51.448;6.650;2023-02-01T09:20:56;22.83;;;5.43;;
22024;SDS011;11176;51.448;6.650;2023-02-01T09:23:23;23.65;;;5.95;;
22024;SDS011;11176;51.448;6.650;2023-02-01T09:25:50;24.33;;;5.82;;
22024;SDS011;11176;51.448;6.650;2023-02-01T09:28:17;27.63;;;5.63;;
22024;SDS011;11176;51.448;6.650;2023-02-01T09:30:44;21.52;;;5.47;;
22024;SDS011;11176;51.448;6.650;2023-02-01T09:33:11;24.45;;;5.88;;
22024;SDS011;11176;51.448;6.650;2023-02-01T09:35:38;23.13;;;5.72;;
22024;SDS011;11176;51.448;6.650;2023-02-01T09:38:04;27.08;;;6.05;;
22024;SDS011;11176;51.448;6.650;2023-02-01T09:40:30;24.13;;;5.65;;
22024;SDS011;11176;51.448;6.650;2023-02-01T09:43:05;16.52;;;5.80;;
22024;SDS011;11176;51.448;6.650;2023-02-01T09:45:51;27.77;;;6.25;;
22024;SDS011;11176;51.448;6.650;2023-02-01T09:48:29;23.38;;;5.35;;
22024;SDS011;11176;51.448;6.650;2023-02-01T09:50:59;20.10;;;5.10;;
22024;SDS011;11176;51.448;6.650;2023-02-01T09:56:07;24.60;;;5.63;;
22024;SDS011;11176;51.448;6.650;2023-02-01T10:01:43;30.58;;;6.65;;
22024;SDS011;11176;51.448;6.650;2023-02-01T10:04:05;21.65;;;5.78;;
22024;SDS011;11176;51.448;6.650;2023-02-01T10:06:40;21.85;;;5.72;;
22024;SDS011;11176;51.448;6.650;2023-02-01T10:09:27;25.33;;;5.47;;
22024;SDS011;11176;51.448;6.650;2023-02-01T10:14:46;21.45;;;5.15;;
22024;SDS011;11176;51.448;6.650;2023-02-01T10:17:37;22.10;;;5.30;;
22024;SDS011;11176;51.448;6.650;2023-02-01T10:20:33;21.70;;;5.38;;
22024;SDS011;11176;51.448;6.650;2023-02-01T10:26:36;18.67;;;4.97;;
22024;SDS011;11176;51.448;6.650;2023-02-01T10:29:14;17.52;;;4.72;;
22024;SDS011;11176;51.448;6.650;2023-02-01T10:31:45;27.25;;;5.63;;
22024;SDS011;11176;51.448;6.650;2023-02-01T10:34:22;23.38;;;5.45;;
22024;SDS011;11176;51.448;6.650;2023-02-01T10:36:57;20.15;;;5.30;;
22024;SDS011;11176;51.448;6.650;2023-02-01T10:39:27;19.13;;;4.95;;
22024;SDS011;11176;51.448;6.650;2023-02-01T10:41:54;20.33;;;6.05;;
22024;SDS011;11176;51.448;6.650;2023-02-01T10:44:24;17.70;;;5.40;;
22024;SDS011;11176;51.448;6.650;2023-02-01T10:46:54;19.67;;;5.03;;
22024;SDS011;11176;51.448;6.650;2023-02-01T10:52:07;21.60;;;5.78;;
22024;SDS011;11176;51.448;6.650;2023-02-01T10:54:40;21.55;;;5.30;;
22024;SDS011;11176;51.448;6.650;2023-02-01T10:57:08;19.10;;;5.00;;
22024;SDS011;11176;51.448;6.650;2023-02-01T10:59:35;19.15;;;5.32;;
22024;SDS011;11176;51.448;6.650;2023-02-01T11:02:12;18.48;;;4.93;;
22024;SDS011;11176;51.448;6.650;2023-02-01T11:04:45;27.90;;;6.10;;
22024;SDS011;11176;51.448;6.650;2023-02-01T11:09:52;21.42;;;5.43;;
22024;SDS011;11176;51.448;6.650;2023-02-01T11:12:23;19.40;;;5.38;;
22024;SDS011;11176;51.448;6.650;2023-02-01T11:15:22;22.85;;;4.88;;
22024;SDS011;11176;51.448;6.650;2023-02-01T11:17:50;23.27;;;5.72;;
22024;SDS011;11176;51.448;6.650;2023-02-01T11:20:20;25.85;;;5.20;;
22024;SDS011;11176;51.448;6.650;2023-02-01T11:23:02;19.52;;;5.00;;
22024;SDS011;11176;51.448;6.650;2023-02-01T11:25:28;22.73;;;5.05;;
22024;SDS011;11176;51.448;6.650;2023-02-01T11:27:58;16.00;;;4.30;;
22024;SDS011;11176;51.448;6.650;2023-02-01T11:30:33;20.08;;;5.22;;
22024;SDS011;11176;51.448;6.650;2023-02-01T11:33:03;16.67;;;5.55;;
22024;SDS011;11176;51.448;6.650;2023-02-01T11:35:32;16.75;;;4.07;;
22024;SDS011;11176;51.448;6.650;2023-02-01T11:38:09;14.40;;;4.55;;
22024;SDS011;11176;51.448;6.650;2023-02-01T11:40:40;15.82;;;4.55;;
22024;SDS011;11176;51.448;6.650;2023-02-01T11:45:33;24.15;;;5.93;;
22024;SDS011;11176;51.448;6.650;2023-02-01T11:48:01;20.70;;;5.10;;
22024;SDS011;11176;51.448;6.650;2023-02-01T11:50:38;24.65;;;5.45;;
22024;SDS011;11176;51.448;6.650;2023-02-01T11:56:16;19.52;;;5.40;;
22024;SDS011;11176;51.448;6.650;2023-02-01T12:01:50;17.95;;;4.38;;
22024;SDS011;11176;51.448;6.650;2023-02-01T12:10:09;20.42;;;5.45;;
22024;SDS011;11176;51.448;6.650;2023-02-01T12:12:57;22.55;;;4.20;;
22024;SDS011;11176;51.448;6.650;2023-02-01T12:21:33;16.23;;;4.22;;
22024;SDS011;11176;51.448;6.650;2023-02-01T12:27:14;16.98;;;3.80;;
22024;SDS011;11176;51.448;6.650;2023-02-01T12:29:58;14.85;;;3.63;;
22024;SDS011;11176;51.448;6.650;2023-02-01T12:36:03;13.77;;;3.40;;
22024;SDS011;11176;51.448;6.650;2023-02-01T12:38:52;15.02;;;3.45;;
22024;SDS011;11176;51.448;6.650;2023-02-01T12:47:33;13.23;;;3.65;;
22024;SDS011;11176;51.448;6.650;2023-02-01T12:52:49;15.30;;;3.33;;
22024;SDS011;11176;51.448;6.650;2023-02-01T12:55:19;19.98;;;3.90;;
22024;SDS011;11176;51.448;6.650;2023-02-01T12:57:50;16.30;;;4.40;;
22024;SDS011;11176;51.448;6.650;2023-02-01T13:00:52;15.68;;;3.10;;
22024;SDS011;11176;51.448;6.650;2023-02-01T13:03:34;18.00;;;3.65;;
22024;SDS011;11176;51.448;6.650;2023-02-01T13:06:10;17.10;;;3.70;;
22024;SDS011;11176;51.448;6.650;2023-02-01T13:11:30;14.77;;;3.20;;
22024;SDS011;11176;51.448;6.650;2023-02-01T13:16:59;12.30;;;3.75;;
22024;SDS011;11176;51.448;6.650;2023-02-01T13:22:23;20.42;;;3.55;;
22024;SDS011;11176;51.448;6.650;2023-02-01T13:25:01;17.13;;;4.30;;
22024;SDS011;11176;51.448;6.650;2023-02-01T13:28:03;22.77;;;3.95;;
22024;SDS011;11176;51.448;6.650;2023-02-01T13:30:53;13.27;;;3.10;;
22024;SDS011;11176;51.448;6.650;2023-02-01T13:41:52;18.23;;;3.40;;
22024;SDS011;11176;51.448;6.650;2023-02-01T13:44:37;14.95;;;3.22;;
22024;SDS011;11176;51.448;6.650;2023-02-01T13:47:19;15.18;;;3.45;;
22024;SDS011;11176;51.448;6.650;2023-02-01T13:49:51;14.98;;;3.75;;
22024;SDS011;11176;51.448;6.650;2023-02-01T13:52:32;17.02;;;4.30;;
22024;SDS011;11176;51.448;6.650;2023-02-01T13:55:10;19.27;;;4.17;;
22024;SDS011;11176;51.448;6.650;2023-02-01T13:57:40;12.40;;;3.08;;
22024;SDS011;11176;51.448;6.650;2023-02-01T14:10:45;14.90;;;3.67;;
22024;SDS011;11176;51.448;6.650;2023-02-01T14:21:16;21.50;;;3.83;;
22024;SDS011;11176;51.448;6.650;2023-02-01T14:23:59;20.38;;;4.18;;
22024;SDS011;11176;51.448;6.650;2023-02-01T14:26:40;13.48;;;3.22;;
22024;SDS011;11176;51.448;6.650;2023-02-01T14:31:54;17.48;;;3.10;;
22024;SDS011;11176;51.448;6.650;2023-02-01T14:34:35;20.90;;;4.50;;
22024;SDS011;11176;51.448;6.650;2023-02-01T14:37:32;16.33;;;3.40;;
22024;SDS011;11176;51.448;6.650;2023-02-01T14:40:02;15.93;;;3.35;;
22024;SDS011;11176;51.448;6.650;2023-02-01T14:42:47;19.30;;;3.88;;
22024;SDS011;11176;51.448;6.650;2023-02-01T14:47:45;13.38;;;2.83;;
22024;SDS011;11176;51.448;6.650;2023-02-01T14:50:18;18.70;;;3.45;;
22024;SDS011;11176;51.448;6.650;2023-02-01T14:56:06;15.77;;;3.70;;
22024;SDS011;11176;51.448;6.650;2023-02-01T14:58:47;17.83;;;3.72;;
22024;SDS011;11176;51.448;6.650;2023-02-01T15:01:26;17.40;;;3.53;;
22024;SDS011;11176;51.448;6.650;2023-02-01T15:09:24;17.60;;;4.03;;
22024;SDS011;11176;51.448;6.650;2023-02-01T15:14:24;17.17;;;3.83;;
22024;SDS011;11176;51.448;6.650;2023-02-01T15:16:52;11.32;;;3.45;;
22024;SDS011;11176;51.448;6.650;2023-02-01T15:19:23;14.88;;;3.58;;
22024;SDS011;11176;51.448;6.650;2023-02-01T15:21:52;16.25;;;3.83;;
22024;SDS011;11176;51.448;6.650;2023-02-01T15:24:28;19.30;;;3.28;;
22024;SDS011;11176;51.448;6.650;2023-02-01T15:27:02;16.80;;;4.53;;
22024;SDS011;11176;51.448;6.650;2023-02-01T15:29:30;21.98;;;3.88;;
22024;SDS011;11176;51.448;6.650;2023-02-01T15:31:58;18.60;;;3.63;;
22024;SDS011;11176;51.448;6.650;2023-02-01T15:34:43;14.63;;;3.30;;
22024;SDS011;11176;51.448;6.650;2023-02-01T15:37:15;15.02;;;4.10;;
22024;SDS011;11176;51.448;6.650;2023-02-01T15:45:19;15.63;;;3.65;;
22024;SDS011;11176;51.448;6.650;2023-02-01T15:47:48;19.65;;;4.15;;
22024;SDS011;11176;51.448;6.650;2023-02-01T15:50:17;21.92;;;3.50;;
22024;SDS011;11176;51.448;6.650;2023-02-01T15:52:50;17.35;;;4.30;;
22024;SDS011;11176;51.448;6.650;2023-02-01T15:57:45;15.60;;;3.55;;
22024;SDS011;11176;51.448;6.650;2023-02-01T16:00:31;17.73;;;3.83;;
22024;SDS011;11176;51.448;6.650;2023-02-01T16:04:01;18.92;;;4.38;;
22024;SDS011;11176;51.448;6.650;2023-02-01T16:06:30;16.13;;;3.85;;
22024;SDS011;11176;51.448;6.650;2023-02-01T16:11:27;23.05;;;5.15;;
22024;SDS011;11176;51.448;6.650;2023-02-01T16:13:59;18.13;;;4.63;;
22024;SDS011;11176;51.448;6.650;2023-02-01T16:16:27;18.85;;;4.57;;
22024;SDS011;11176;51.448;6.650;2023-02-01T16:18:55;19.08;;;3.92;;
22024;SDS011;11176;51.448;6.650;2023-02-01T16:21:22;14.05;;;4.10;;
22024;SDS011;11176;51.448;6.650;2023-02-01T16:23:49;15.98;;;4.30;;
22024;SDS011;11176;51.448;6.650;2023-02-01T16:26:17;22.05;;;4.05;;
22024;SDS011;11176;51.448;6.650;2023-02-01T16:28:45;24.70;;;4.53;;
22024;SDS011;11176;51.448;6.650;2023-02-01T16:31:12;21.60;;;4.28;;
22024;SDS011;11176;51.448;6.650;2023-02-01T16:33:50;16.98;;;3.92;;
22024;SDS011;11176;51.448;6.650;2023-02-01T16:36:17;17.67;;;3.90;;
22024;SDS011;11176;51.448;6.650;2023-02-01T16:38:45;18.08;;;4.25;;
22024;SDS011;11176;51.448;6.650;2023-02-01T16:41:16;21.85;;;3.55;;
22024;SDS011;11176;51.448;6.650;2023-02-01T16:43:44;19.33;;;4.10;;
22024;SDS011;11176;51.448;6.650;2023-02-01T16:46:15;18.60;;;4.88;;
22024;SDS011;11176;51.448;6.650;2023-02-01T16:48:45;16.80;;;3.40;;
22024;SDS011;11176;51.448;6.650;2023-02-01T16:51:16;16.33;;;3.75;;
22024;SDS011;11176;51.448;6.650;2023-02-01T16:53:43;15.07;;;4.18;;
22024;SDS011;11176;51.448;6.650;2023-02-01T16:56:29;21.83;;;4.50;;
22024;SDS011;11176;51.448;6.650;2023-02-01T16:58:57;16.45;;;3.90;;
22024;SDS011;11176;51.448;6.650;2023-02-01T17:01:24;24.15;;;4.47;;
22024;SDS011;11176;51.448;6.650;2023-02-01T17:03:51;20.42;;;3.80;;
22024;SDS011;11176;51.448;6.650;2023-02-01T17:06:19;19.63;;;4.47;;
22024;SDS011;11176;51.448;6.650;2023-02-01T17:08:50;17.23;;;3.97;;
22024;SDS011;11176;51.448;6.650;2023-02-01T17:11:18;14.25;;;4.20;;
22024;SDS011;11176;51.448;6.650;2023-02-01T17:13:45;16.80;;;4.05;;
22024;SDS011;11176;51.448;6.650;2023-02-01T17:18:53;14.63;;;4.05;;
22024;SDS011;11176;51.448;6.650;2023-02-01T17:21:23;16.23;;;5.00;;
22024;SDS011;11176;51.448;6.650;2023-02-01T17:23:52;22.80;;;5.15;;
22024;SDS011;11176;51.448;6.650;2023-02-01T17:26:19;17.23;;;3.97;;
22024;SDS011;11176;51.448;6.650;2023-02-01T17:28:45;26.08;;;4.50;;